sensor_id;sensor_type;location;lat;lon;timestamp;pressure;altitude;pressure_sealevel;temperature;humidity
54936;BME280;40838;50.676;7.838;2023-03-18T00:01:01;97812.41;;;3.71;100.00
54936;BME280;40838;50.676;7.838;2023-03-18T00:03:28;97801.03;;;3.49;100.00
54936;BME280;40838;50.676;7.838;2023-03-18T00:06:03;97793.44;;;3.30;100.00
54936;BME280;40838;50.676;7.838;2023-03-18T00:08:29;97801.41;;;3.58;100.00
54936;BME280;40838;50.676;7.838;2023-03-18T00:10:57;97798.63;;;3.86;100.00
54936;BME280;40838;50.676;7.838;2023-03-18T00:13:26;97795.28;;;3.96;100.00
54936;BME280;40838;50.676;7.838;2023-03-18T00:15:53;97795.34;;;4.01;100.00
54936;BME280;40838;50.676;7.838;2023-03-18T00:18:20;97784.47;;;4.41;100.00
54936;BME280;40838;50.676;7.838;2023-03-18T00:20:47;97788.06;;;4.35;100.00
54936;BME280;40838;50.676;7.838;2023-03-18T00:23:14;97791.78;;;4.12;100.00
54936;BME280;40838;50.676;7.838;2023-03-18T00:25:41;97799.97;;;3.28;100.00
54936;BME280;40838;50.676;7.838;2023-03-18T00:28:08;97787.69;;;3.56;100.00
54936;BME280;40838;50.676;7.838;2023-03-18T00:30:38;97794.31;;;3.80;100.00
54936;BME280;40838;50.676;7.838;2023-03-18T00:33:06;97792.16;;;3.99;100.00
54936;BME280;40838;50.676;7.838;2023-03-18T00:35:33;97798.63;;;3.86;100.00
54936;BME280;40838;50.676;7.838;2023-03-18T00:38:00;97803.94;;;3.91;100.00
54936;BME280;40838;50.676;7.838;2023-03-18T00:40:32;97802.00;;;4.09;100.00
54936;BME280;40838;50.676;7.838;2023-03-18T00:43:18;97810.19;;;4.07;100.00
54936;BME280;40838;50.676;7.838;2023-03-18T00:45:49;97803.22;;;4.23;100.00
54936;BME280;40838;50.676;7.838;2023-03-18T00:48:16;97813.06;;;4.06;100.00
54936;BME280;40838;50.676;7.838;2023-03-18T00:50:43;97815.44;;;4.29;100.00
54936;BME280;40838;50.676;7.838;2023-03-18T00:53:11;97809.06;;;4.25;100.00
54936;BME280;40838;50.676;7.838;2023-03-18T00:55:39;97811.47;;;4.27;100.00
54936;BME280;40838;50.676;7.838;2023-03-18T00:58:06;97815.63;;;4.44;100.00
54936;BME280;40838;50.676;7.838;2023-03-18T01:00:34;97810.75;;;4.63;100.00
54936;BME280;40838;50.676;7.838;2023-03-18T01:03:04;97806.09;;;4.43;100.00
54936;BME280;40838;50.676;7.838;2023-03-18T01:05:31;97806.53;;;4.35;100.00
54936;BME280;40838;50.676;7.838;2023-03-18T01:07:59;97798.94;;;4.39;100.00
54936;BME280;40838;50.676;7.838;2023-03-18T01:10:26;97794.47;;;4.39;100.00
54936;BME280;40838;50.676;7.838;2023-03-18T01:12:54;97789.88;;;4.57;100.00
54936;BME280;40838;50.676;7.838;2023-03-18T01:15:22;97785.50;;;4.73;100.00
54936;BME280;40838;50.676;7.838;2023-03-18T01:17:50;97783.38;;;4.70;100.00
54936;BME280;40838;50.676;7.838;2023-03-18T01:20:20;97768.16;;;4.82;100.00
54936;BME280;40838;50.676;7.838;2023-03-18T01:22:51;97773.53;;;4.92;100.00
54936;BME280;40838;50.676;7.838;2023-03-18T01:25:18;97770.09;;;4.92;100.00
54936;BME280;40838;50.676;7.838;2023-03-18T01:27:50;97769.66;;;5.05;100.00
54936;BME280;40838;50.676;7.838;2023-03-18T01:30:18;97783.72;;;4.78;100.00
54936;BME280;40838;50.676;7.838;2023-03-18T01:32:45;97781.03;;;4.73;100.00
54936;BME280;40838;50.676;7.838;2023-03-18T01:35:13;97773.25;;;4.88;100.00
54936;BME280;40838;50.676;7.838;2023-03-18T01:37:46;97767.03;;;4.73;100.00
54936;BME280;40838;50.676;7.838;2023-03-18T01:40:14;97775.22;;;4.71;100.00
54936;BME280;40838;50.676;7.838;2023-03-18T01:42:45;97768.25;;;4.60;100.00
54936;BME280;40838;50.676;7.838;2023-03-18T01:45:18;97766.00;;;4.74;100.00
54936;BME280;40838;50.676;7.838;2023-03-18T01:47:48;97751.09;;;4.57;100.00
54936;BME280;40838;50.676;7.838;2023-03-18T01:50:20;97753.50;;;4.59;100.00
54936;BME280;40838;50.676;7.838;2023-03-18T01:52:53;97751.47;;;4.71;100.00
54936;BME280;40838;50.676;7.838;2023-03-18T01:55:23;97751.03;;;4.47;100.00
54936;BME280;40838;50.676;7.838;2023-03-18T01:57:51;97755.00;;;4.87;100.00
54936;BME280;40838;50.676;7.838;2023-03-18T02:00:18;97754.78;;;4.94;100.00
54936;BME280;40838;50.676;7.838;2023-03-18T02:05:33;97751.09;;;4.57;100.00
54936;BME280;40838;50.676;7.838;2023-03-18T02:08:05;97743.41;;;4.88;100.00
54936;BME280;40838;50.676;7.838;2023-03-18T02:10:32;97750.38;;;4.67;100.00
54936;BME280;40838;50.676;7.838;2023-03-18T02:13:02;97746.09;;;4.61;100.00
54936;BME280;40838;50.676;7.838;2023-03-18T02:15:38;97750.13;;;4.69;100.00
54936;BME280;40838;50.676;7.838;2023-03-18T02:18:16;97746.75;;;4.78;100.00
54936;BME280;40838;50.676;7.838;2023-03-18T02:20:57;97747.72;;;4.62;100.00
54936;BME280;40838;50.676;7.838;2023-03-18T02:23:37;97748.22;;;4.96;100.00
54936;BME280;40838;50.676;7.838;2023-03-18T02:26:14;97742.72;;;4.65;100.00
54936;BME280;40838;50.676;7.838;2023-03-18T02:28:46;97741.16;;;4.70;100.00
54936;BME280;40838;50.676;7.838;2023-03-18T02:31:15;97745.88;;;4.62;100.00
54936;BME280;40838;50.676;7.838;2023-03-18T02:33:45;97742.91;;;4.54;100.00
54936;BME280;40838;50.676;7.838;2023-03-18T02:36:17;97747.72;;;4.62;100.00
54936;BME280;40838;50.676;7.838;2023-03-18T02:38:45;97743.00;;;4.69;100.00
54936;BME280;40838;50.676;7.838;2023-03-18T02:41:23;97751.16;;;4.67;100.00
54936;BME280;40838;50.676;7.838;2023-03-18T02:43:52;97749.28;;;4.63;100.00
54936;BME280;40838;50.676;7.838;2023-03-18T02:46:27;97764.00;;;4.54;100.00
54936;BME280;40838;50.676;7.838;2023-03-18T02:48:56;97755.91;;;4.33;100.00
54936;BME280;40838;50.676;7.838;2023-03-18T02:51:25;97761.81;;;4.23;100.00
54936;BME280;40838;50.676;7.838;2023-03-18T02:53:55;97759.75;;;4.26;100.00
54936;BME280;40838;50.676;7.838;2023-03-18T02:56:25;97749.41;;;4.19;100.00
54936;BME280;40838;50.676;7.838;2023-03-18T02:58:53;97746.22;;;4.17;100.00
54936;BME280;40838;50.676;7.838;2023-03-18T03:01:20;97743.13;;;4.25;100.00
54936;BME280;40838;50.676;7.838;2023-03-18T03:03:48;97745.44;;;4.16;100.00
54936;BME280;40838;50.676;7.838;2023-03-18T03:06:15;97748.00;;;4.11;100.00
54936;BME280;40838;50.676;7.838;2023-03-18T03:08:43;97741.66;;;4.07;100.00
54936;BME280;40838;50.676;7.838;2023-03-18T03:11:10;97742.94;;;4.05;100.00
54936;BME280;40838;50.676;7.838;2023-03-18T03:13:38;97759.13;;;3.91;100.00
54936;BME280;40838;50.676;7.838;2023-03-18T03:16:08;97758.63;;;3.94;100.00
54936;BME280;40838;50.676;7.838;2023-03-18T03:18:35;97763.66;;;4.18;100.00
54936;BME280;40838;50.676;7.838;2023-03-18T03:21:03;97763.81;;;4.11;100.00
54936;BME280;40838;50.676;7.838;2023-03-18T03:23:30;97758.41;;;4.23;100.00
54936;BME280;40838;50.676;7.838;2023-03-18T03:25:57;97762.59;;;4.19;100.00
54936;BME280;40838;50.676;7.838;2023-03-18T03:28:25;97763.44;;;4.25;100.00
54936;BME280;40838;50.676;7.838;2023-03-18T03:30:53;97763.31;;;4.14;100.00
54936;BME280;40838;50.676;7.838;2023-03-18T03:33:21;97768.41;;;4.21;100.00
54936;BME280;40838;50.676;7.838;2023-03-18T03:35:48;97768.56;;;3.87;100.00
54936;BME280;40838;50.676;7.838;2023-03-18T03:38:15;97769.66;;;3.91;100.00
54936;BME280;40838;50.676;7.838;2023-03-18T03:40:42;97769.44;;;3.49;100.00
54936;BME280;40838;50.676;7.838;2023-03-18T03:43:10;97777.59;;;3.69;100.00
54936;BME280;40838;50.676;7.838;2023-03-18T03:45:37;97762.34;;;3.71;100.00
54936;BME280;40838;50.676;7.838;2023-03-18T03:48:05;97767.13;;;3.74;100.00
54936;BME280;40838;50.676;7.838;2023-03-18T03:50:34;97779.03;;;4.04;100.00
54936;BME280;40838;50.676;7.838;2023-03-18T03:53:02;97779.84;;;4.05;100.00
54936;BME280;40838;50.676;7.838;2023-03-18T03:55:30;97779.13;;;4.14;100.00
54936;BME280;40838;50.676;7.838;2023-03-18T03:57:58;97783.69;;;4.19;100.00
54936;BME280;40838;50.676;7.838;2023-03-18T04:00:27;97776.56;;;4.47;100.00
54936;BME280;40838;50.676;7.838;2023-03-18T04:02:54;97786.88;;;4.21;100.00
54936;BME280;40838;50.676;7.838;2023-03-18T04:05:23;97778.03;;;4.59;100.00
54936;BME280;40838;50.676;7.838;2023-03-18T04:07:52;97791.66;;;4.02;100.00
54936;BME280;40838;50.676;7.838;2023-03-18T04:10:32;97788.78;;;3.82;100.00
54936;BME280;40838;50.676;7.838;2023-03-18T04:13:01;97785.88;;;3.78;100.00
54936;BME280;40838;50.676;7.838;2023-03-18T04:15:28;97791.38;;;3.76;100.00
54936;BME280;40838;50.676;7.838;2023-03-18T04:17:58;97798.09;;;3.45;100.00
54936;BME280;40838;50.676;7.838;2023-03-18T04:20:29;97794.19;;;3.48;100.00
54936;BME280;40838;50.676;7.838;2023-03-18T04:22:59;97793.94;;;3.49;100.00
54936;BME280;40838;50.676;7.838;2023-03-18T04:25:26;97796.19;;;3.41;100.00
54936;BME280;40838;50.676;7.838;2023-03-18T04:27:52;97791.19;;;3.61;100.00
54936;BME280;40838;50.676;7.838;2023-03-18T04:30:20;97796.75;;;3.65;100.00
54936;BME280;40838;50.676;7.838;2023-03-18T04:33:00;97790.34;;;3.39;100.00
54936;BME280;40838;50.676;7.838;2023-03-18T04:35:29;97806.72;;;3.41;100.00
54936;BME280;40838;50.676;7.838;2023-03-18T04:37:57;97805.44;;;3.43;100.00
54936;BME280;40838;50.676;7.838;2023-03-18T04:40:26;97806.00;;;3.45;100.00
54936;BME280;40838;50.676;7.838;2023-03-18T04:42:53;97805.16;;;3.62;100.00
54936;BME280;40838;50.676;7.838;2023-03-18T04:45:23;97805.53;;;3.70;100.00
54936;BME280;40838;50.676;7.838;2023-03-18T04:47:53;97812.56;;;3.65;100.00
54936;BME280;40838;50.676;7.838;2023-03-18T04:50:21;97808.91;;;3.66;100.00
54936;BME280;40838;50.676;7.838;2023-03-18T04:52:48;97812.44;;;3.76;100.00
54936;BME280;40838;50.676;7.838;2023-03-18T04:55:21;97821.97;;;3.77;100.00
54936;BME280;40838;50.676;7.838;2023-03-18T04:57:50;97817.59;;;3.66;100.00
54936;BME280;40838;50.676;7.838;2023-03-18T05:00:20;97824.44;;;3.67;100.00
54936;BME280;40838;50.676;7.838;2023-03-18T05:02:52;97823.91;;;3.65;100.00
54936;BME280;40838;50.676;7.838;2023-03-18T05:05:22;97832.00;;;3.81;100.00
54936;BME280;40838;50.676;7.838;2023-03-18T05:07:50;97818.66;;;3.65;100.00
54936;BME280;40838;50.676;7.838;2023-03-18T05:10:18;97819.38;;;3.61;100.00
54936;BME280;40838;50.676;7.838;2023-03-18T05:12:46;97835.94;;;3.22;100.00
54936;BME280;40838;50.676;7.838;2023-03-18T05:15:18;97830.84;;;3.16;100.00
54936;BME280;40838;50.676;7.838;2023-03-18T05:17:51;97836.03;;;2.94;100.00
54936;BME280;40838;50.676;7.838;2023-03-18T05:20:18;97834.09;;;2.89;100.00
54936;BME280;40838;50.676;7.838;2023-03-18T05:22:46;97837.22;;;2.69;100.00
54936;BME280;40838;50.676;7.838;2023-03-18T05:25:27;97828.88;;;2.44;100.00
54936;BME280;40838;50.676;7.838;2023-03-18T05:27:54;97830.16;;;2.41;100.00
54936;BME280;40838;50.676;7.838;2023-03-18T05:30:34;97829.69;;;2.32;100.00
54936;BME280;40838;50.676;7.838;2023-03-18T05:33:03;97828.44;;;2.35;100.00
54936;BME280;40838;50.676;7.838;2023-03-18T05:35:40;97837.41;;;2.51;100.00
54936;BME280;40838;50.676;7.838;2023-03-18T05:38:07;97833.84;;;2.57;100.00
54936;BME280;40838;50.676;7.838;2023-03-18T05:40:35;97836.19;;;2.42;100.00
54936;BME280;40838;50.676;7.838;2023-03-18T05:43:15;97833.44;;;2.36;100.00
54936;BME280;40838;50.676;7.838;2023-03-18T05:45:51;97832.56;;;2.43;100.00
54936;BME280;40838;50.676;7.838;2023-03-18T05:48:25;97828.81;;;2.55;100.00
54936;BME280;40838;50.676;7.838;2023-03-18T05:50:56;97826.81;;;2.62;100.00
54936;BME280;40838;50.676;7.838;2023-03-18T05:53:25;97831.31;;;2.79;100.00
54936;BME280;40838;50.676;7.838;2023-03-18T05:56:03;97829.81;;;2.83;100.00
54936;BME280;40838;50.676;7.838;2023-03-18T05:58:31;97837.00;;;2.88;100.00
54936;BME280;40838;50.676;7.838;2023-03-18T06:01:16;97836.59;;;2.96;100.00
54936;BME280;40838;50.676;7.838;2023-03-18T06:03:45;97837.63;;;3.28;100.00
54936;BME280;40838;50.676;7.838;2023-03-18T06:06:11;97842.22;;;3.55;100.00
54936;BME280;40838;50.676;7.838;2023-03-18T06:08:38;97839.22;;;3.90;100.00
54936;BME280;40838;50.676;7.838;2023-03-18T06:11:06;97832.38;;;4.33;100.00
54936;BME280;40838;50.676;7.838;2023-03-18T06:13:33;97833.50;;;5.02;100.00
54936;BME280;40838;50.676;7.838;2023-03-18T06:16:00;97823.41;;;5.31;100.00
54936;BME280;40838;50.676;7.838;2023-03-18T06:18:30;97834.38;;;5.97;100.00
54936;BME280;40838;50.676;7.838;2023-03-18T06:20:58;97831.28;;;6.21;100.00
54936;BME280;40838;50.676;7.838;2023-03-18T06:23:26;97833.59;;;5.97;100.00
54936;BME280;40838;50.676;7.838;2023-03-18T06:25:53;97830.44;;;8.49;100.00
54936;BME280;40838;50.676;7.838;2023-03-18T06:28:27;97830.75;;;10.17;100.00
54936;BME280;40838;50.676;7.838;2023-03-18T06:30:58;97831.19;;;11.47;100.00
54936;BME280;40838;50.676;7.838;2023-03-18T06:33:29;97841.19;;;9.65;100.00
54936;BME280;40838;50.676;7.838;2023-03-18T06:35:57;97845.84;;;11.77;100.00
54936;BME280;40838;50.676;7.838;2023-03-18T06:38:27;97844.88;;;11.86;100.00
54936;BME280;40838;50.676;7.838;2023-03-18T06:40:56;97855.22;;;12.29;99.92
54936;BME280;40838;50.676;7.838;2023-03-18T06:43:22;97865.63;;;11.89;97.39
54936;BME280;40838;50.676;7.838;2023-03-18T06:45:50;97850.97;;;13.23;93.45
54936;BME280;40838;50.676;7.838;2023-03-18T06:48:17;97859.59;;;12.25;96.92
54936;BME280;40838;50.676;7.838;2023-03-18T06:50:48;97849.44;;;13.09;93.48
54936;BME280;40838;50.676;7.838;2023-03-18T06:53:22;97848.00;;;14.53;85.81
54936;BME280;40838;50.676;7.838;2023-03-18T06:55:50;97857.78;;;12.85;93.62
54936;BME280;40838;50.676;7.838;2023-03-18T06:58:21;97860.75;;;12.33;95.83
54936;BME280;40838;50.676;7.838;2023-03-18T07:01:03;97855.69;;;15.24;82.74
54936;BME280;40838;50.676;7.838;2023-03-18T07:03:36;97856.25;;;15.56;81.14
54936;BME280;40838;50.676;7.838;2023-03-18T07:06:05;97859.59;;;13.20;86.97
54936;BME280;40838;50.676;7.838;2023-03-18T07:08:36;97856.91;;;14.23;87.57
54936;BME280;40838;50.676;7.838;2023-03-18T07:11:04;97857.06;;;14.35;84.26
54936;BME280;40838;50.676;7.838;2023-03-18T07:13:31;97869.88;;;12.18;96.74
54936;BME280;40838;50.676;7.838;2023-03-18T07:15:59;97871.97;;;11.94;95.94
54936;BME280;40838;50.676;7.838;2023-03-18T07:18:26;97867.19;;;12.46;97.78
54936;BME280;40838;50.676;7.838;2023-03-18T07:20:53;97871.78;;;13.35;89.41
54936;BME280;40838;50.676;7.838;2023-03-18T07:23:23;97873.84;;;13.07;92.09
54936;BME280;40838;50.676;7.838;2023-03-18T07:25:50;97870.31;;;14.31;88.37
54936;BME280;40838;50.676;7.838;2023-03-18T07:28:18;97863.47;;;14.74;81.92
54936;BME280;40838;50.676;7.838;2023-03-18T07:30:45;97877.03;;;14.69;82.89
54936;BME280;40838;50.676;7.838;2023-03-18T07:33:12;97874.19;;;14.65;83.36
54936;BME280;40838;50.676;7.838;2023-03-18T07:35:40;97882.56;;;11.19;100.00
54936;BME280;40838;50.676;7.838;2023-03-18T07:38:07;97882.00;;;12.52;97.47
54936;BME280;40838;50.676;7.838;2023-03-18T07:40:36;97885.03;;;12.59;91.34
54936;BME280;40838;50.676;7.838;2023-03-18T07:43:03;97893.22;;;12.12;96.82
54936;BME280;40838;50.676;7.838;2023-03-18T07:45:30;97880.78;;;11.48;100.00
54936;BME280;40838;50.676;7.838;2023-03-18T07:47:57;97892.03;;;10.74;100.00
54936;BME280;40838;50.676;7.838;2023-03-18T07:50:24;97886.50;;;11.87;100.00
54936;BME280;40838;50.676;7.838;2023-03-18T07:52:52;97881.75;;;11.98;100.00
54936;BME280;40838;50.676;7.838;2023-03-18T07:55:19;97893.16;;;12.54;90.56
54936;BME280;40838;50.676;7.838;2023-03-18T07:57:47;97896.19;;;11.51;100.00
54936;BME280;40838;50.676;7.838;2023-03-18T08:00:14;97890.59;;;11.66;96.31
54936;BME280;40838;50.676;7.838;2023-03-18T08:02:41;97898.56;;;12.12;92.93
54936;BME280;40838;50.676;7.838;2023-03-18T08:05:09;97892.69;;;12.52;92.55
54936;BME280;40838;50.676;7.838;2023-03-18T08:07:36;97896.78;;;11.48;97.98
54936;BME280;40838;50.676;7.838;2023-03-18T08:10:04;97893.91;;;12.32;96.44
54936;BME280;40838;50.676;7.838;2023-03-18T08:12:31;97900.94;;;10.45;100.00
54936;BME280;40838;50.676;7.838;2023-03-18T08:15:01;97901.59;;;11.78;98.00
54936;BME280;40838;50.676;7.838;2023-03-18T08:17:32;97901.59;;;11.32;97.24
54936;BME280;40838;50.676;7.838;2023-03-18T08:19:59;97906.78;;;12.02;93.54
54936;BME280;40838;50.676;7.838;2023-03-18T08:22:25;97905.91;;;12.57;90.85
54936;BME280;40838;50.676;7.838;2023-03-18T08:24:52;97906.69;;;13.75;85.88
54936;BME280;40838;50.676;7.838;2023-03-18T08:27:19;97915.00;;;11.27;95.33
54936;BME280;40838;50.676;7.838;2023-03-18T08:29:46;97907.06;;;13.60;88.04
54936;BME280;40838;50.676;7.838;2023-03-18T08:32:15;97908.03;;;12.32;93.42
54936;BME280;40838;50.676;7.838;2023-03-18T08:34:43;97917.41;;;11.42;96.12
54936;BME280;40838;50.676;7.838;2023-03-18T08:37:11;97922.56;;;9.32;100.00
54936;BME280;40838;50.676;7.838;2023-03-18T08:39:39;97913.34;;;9.54;100.00
54936;BME280;40838;50.676;7.838;2023-03-18T08:42:09;97917.16;;;9.08;100.00
54936;BME280;40838;50.676;7.838;2023-03-18T08:44:36;97917.56;;;9.89;100.00
54936;BME280;40838;50.676;7.838;2023-03-18T08:47:04;97918.09;;;8.88;100.00
54936;BME280;40838;50.676;7.838;2023-03-18T08:49:34;97926.69;;;8.10;100.00
54936;BME280;40838;50.676;7.838;2023-03-18T08:52:01;97921.97;;;8.62;100.00
54936;BME280;40838;50.676;7.838;2023-03-18T08:54:28;97933.25;;;8.23;100.00
54936;BME280;40838;50.676;7.838;2023-03-18T08:56:55;97928.78;;;8.78;100.00
54936;BME280;40838;50.676;7.838;2023-03-18T08:59:22;97929.13;;;10.03;100.00
54936;BME280;40838;50.676;7.838;2023-03-18T09:01:49;97925.31;;;10.33;100.00
54936;BME280;40838;50.676;7.838;2023-03-18T09:04:16;97926.56;;;9.93;100.00
54936;BME280;40838;50.676;7.838;2023-03-18T09:06:44;97926.84;;;9.62;100.00
54936;BME280;40838;50.676;7.838;2023-03-18T09:09:11;97933.13;;;9.42;100.00
54936;BME280;40838;50.676;7.838;2023-03-18T09:11:38;97926.00;;;8.44;100.00
54936;BME280;40838;50.676;7.838;2023-03-18T09:14:04;97925.97;;;9.38;100.00
54936;BME280;40838;50.676;7.838;2023-03-18T09:16:31;97931.38;;;11.66;100.00
54936;BME280;40838;50.676;7.838;2023-03-18T09:18:59;97928.94;;;12.17;95.84
54936;BME280;40838;50.676;7.838;2023-03-18T09:21:26;97926.91;;;11.15;98.15
54936;BME280;40838;50.676;7.838;2023-03-18T09:23:54;97927.94;;;11.66;95.78
54936;BME280;40838;50.676;7.838;2023-03-18T09:26:21;97928.03;;;11.61;97.86
54936;BME280;40838;50.676;7.838;2023-03-18T09:28:48;97928.41;;;10.65;97.71
54936;BME280;40838;50.676;7.838;2023-03-18T09:31:15;97927.56;;;10.45;98.48
54936;BME280;40838;50.676;7.838;2023-03-18T09:33:42;97921.25;;;11.17;99.08
54936;BME280;40838;50.676;7.838;2023-03-18T09:36:09;97925.06;;;9.82;100.00
54936;BME280;40838;50.676;7.838;2023-03-18T09:38:36;97914.81;;;10.42;100.00
54936;BME280;40838;50.676;7.838;2023-03-18T09:41:16;97920.56;;;12.59;90.50
54936;BME280;40838;50.676;7.838;2023-03-18T09:44:04;97914.81;;;12.66;91.61
54936;BME280;40838;50.676;7.838;2023-03-18T09:46:40;97909.91;;;13.41;87.71
54936;BME280;40838;50.676;7.838;2023-03-18T09:49:21;97909.75;;;13.37;88.98
54936;BME280;40838;50.676;7.838;2023-03-18T09:51:56;97899.75;;;13.07;87.84
54936;BME280;40838;50.676;7.838;2023-03-18T09:54:32;97906.59;;;12.76;91.88
54936;BME280;40838;50.676;7.838;2023-03-18T09:57:02;97907.19;;;10.97;95.43
54936;BME280;40838;50.676;7.838;2023-03-18T09:59:36;97911.28;;;11.41;97.91
54936;BME280;40838;50.676;7.838;2023-03-18T10:02:07;97905.50;;;11.20;95.50
54936;BME280;40838;50.676;7.838;2023-03-18T10:04:43;97918.44;;;11.27;98.72
54936;BME280;40838;50.676;7.838;2023-03-18T10:07:13;97918.38;;;12.62;92.90
54936;BME280;40838;50.676;7.838;2023-03-18T10:09:45;97922.97;;;10.70;96.08
54936;BME280;40838;50.676;7.838;2023-03-18T10:12:16;97919.56;;;11.40;94.24
54936;BME280;40838;50.676;7.838;2023-03-18T10:14:49;97923.31;;;10.87;97.16
54936;BME280;40838;50.676;7.838;2023-03-18T10:17:19;97915.50;;;10.29;99.82
54936;BME280;40838;50.676;7.838;2023-03-18T10:19:51;97919.75;;;11.76;98.24
54936;BME280;40838;50.676;7.838;2023-03-18T10:22:31;97920.88;;;11.42;94.01
54936;BME280;40838;50.676;7.838;2023-03-18T10:25:08;97934.88;;;10.35;97.89
54936;BME280;40838;50.676;7.838;2023-03-18T10:27:50;97928.94;;;11.70;97.04
54936;BME280;40838;50.676;7.838;2023-03-18T10:30:30;97917.69;;;12.56;87.89
54936;BME280;40838;50.676;7.838;2023-03-18T10:33:08;97927.06;;;10.86;93.52
54936;BME280;40838;50.676;7.838;2023-03-18T10:35:44;97925.88;;;11.30;94.31
54936;BME280;40838;50.676;7.838;2023-03-18T10:38:17;97921.66;;;11.76;96.83
54936;BME280;40838;50.676;7.838;2023-03-18T10:40:45;97929.34;;;10.31;100.00
54936;BME280;40838;50.676;7.838;2023-03-18T10:43:16;97931.59;;;10.86;94.80
54936;BME280;40838;50.676;7.838;2023-03-18T10:45:45;97929.78;;;10.14;98.19
54936;BME280;40838;50.676;7.838;2023-03-18T10:48:18;97923.41;;;10.58;97.31
54936;BME280;40838;50.676;7.838;2023-03-18T10:50:51;97925.22;;;12.82;87.18
54936;BME280;40838;50.676;7.838;2023-03-18T10:53:26;97929.59;;;12.50;88.93
54936;BME280;40838;50.676;7.838;2023-03-18T10:55:58;97932.06;;;11.91;91.58
54936;BME280;40838;50.676;7.838;2023-03-18T10:58:30;97922.06;;;13.24;85.65
54936;BME280;40838;50.676;7.838;2023-03-18T11:00:57;97928.00;;;11.80;88.04
54936;BME280;40838;50.676;7.838;2023-03-18T11:03:26;97931.28;;;10.68;96.13
54936;BME280;40838;50.676;7.838;2023-03-18T11:05:56;97925.28;;;11.33;94.80
54936;BME280;40838;50.676;7.838;2023-03-18T11:08:32;97926.56;;;11.03;95.10
54936;BME280;40838;50.676;7.838;2023-03-18T11:11:13;97917.34;;;12.49;90.46
54936;BME280;40838;50.676;7.838;2023-03-18T11:13:47;97915.09;;;13.37;84.69
54936;BME280;40838;50.676;7.838;2023-03-18T11:16:25;97916.38;;;14.42;87.23
54936;BME280;40838;50.676;7.838;2023-03-18T11:18:54;97931.75;;;12.62;85.91
54936;BME280;40838;50.676;7.838;2023-03-18T11:21:22;97927.50;;;10.50;94.47
54936;BME280;40838;50.676;7.838;2023-03-18T11:23:53;97928.72;;;10.82;95.12
54936;BME280;40838;50.676;7.838;2023-03-18T11:26:48;97932.97;;;9.92;98.50
54936;BME280;40838;50.676;7.838;2023-03-18T11:29:22;97933.47;;;9.94;100.00
54936;BME280;40838;50.676;7.838;2023-03-18T11:31:53;97934.84;;;10.83;96.48
54936;BME280;40838;50.676;7.838;2023-03-18T11:34:23;97932.31;;;12.86;89.37
54936;BME280;40838;50.676;7.838;2023-03-18T11:36:55;97935.25;;;12.98;88.32
54936;BME280;40838;50.676;7.838;2023-03-18T11:39:24;97930.28;;;13.06;90.40
54936;BME280;40838;50.676;7.838;2023-03-18T11:41:52;97923.47;;;13.44;90.12
54936;BME280;40838;50.676;7.838;2023-03-18T11:44:26;97920.34;;;13.74;87.06
54936;BME280;40838;50.676;7.838;2023-03-18T11:46:56;97916.97;;;13.37;88.33
54936;BME280;40838;50.676;7.838;2023-03-18T11:49:26;97925.03;;;12.50;92.29
54936;BME280;40838;50.676;7.838;2023-03-18T11:55:07;97924.09;;;11.72;94.15
54936;BME280;40838;50.676;7.838;2023-03-18T11:57:48;97926.63;;;11.63;93.26
54936;BME280;40838;50.676;7.838;2023-03-18T12:00:32;97925.34;;;11.28;95.66
54936;BME280;40838;50.676;7.838;2023-03-18T12:03:29;97925.00;;;11.67;94.01
54936;BME280;40838;50.676;7.838;2023-03-18T12:06:07;97926.94;;;11.95;92.62
54936;BME280;40838;50.676;7.838;2023-03-18T12:08:50;97918.03;;;12.54;91.00
54936;BME280;40838;50.676;7.838;2023-03-18T12:11:30;97910.84;;;13.90;87.61
54936;BME280;40838;50.676;7.838;2023-03-18T12:14:04;97910.91;;;14.07;87.99
54936;BME280;40838;50.676;7.838;2023-03-18T12:16:44;97907.06;;;13.37;87.15
54936;BME280;40838;50.676;7.838;2023-03-18T12:19:27;97899.75;;;12.84;90.85
54936;BME280;40838;50.676;7.838;2023-03-18T12:25:11;97908.28;;;12.72;88.33
54936;BME280;40838;50.676;7.838;2023-03-18T12:27:44;97903.78;;;12.31;91.64
54936;BME280;40838;50.676;7.838;2023-03-18T12:30:37;97907.84;;;11.55;90.83
54936;BME280;40838;50.676;7.838;2023-03-18T12:33:17;97914.09;;;11.31;93.70
54936;BME280;40838;50.676;7.838;2023-03-18T12:35:52;97917.03;;;12.09;92.35
54936;BME280;40838;50.676;7.838;2023-03-18T12:38:39;97913.56;;;11.81;93.45
54936;BME280;40838;50.676;7.838;2023-03-18T12:41:14;97914.41;;;10.73;94.60
54936;BME280;40838;50.676;7.838;2023-03-18T12:43:55;97917.63;;;10.94;93.99
54936;BME280;40838;50.676;7.838;2023-03-18T12:46:29;97903.31;;;12.02;90.68
54936;BME280;40838;50.676;7.838;2023-03-18T12:49:02;97897.44;;;12.41;88.72
54936;BME280;40838;50.676;7.838;2023-03-18T12:51:43;97900.16;;;12.00;87.46
54936;BME280;40838;50.676;7.838;2023-03-18T12:54:17;97906.06;;;12.24;90.75
54936;BME280;40838;50.676;7.838;2023-03-18T12:56:47;97904.66;;;11.39;89.43
54936;BME280;40838;50.676;7.838;2023-03-18T12:59:21;97899.09;;;10.65;90.39
54936;BME280;40838;50.676;7.838;2023-03-18T13:01:57;97898.13;;;11.78;88.34
54936;BME280;40838;50.676;7.838;2023-03-18T13:04:32;97886.09;;;12.86;87.27
54936;BME280;40838;50.676;7.838;2023-03-18T13:07:04;97890.41;;;12.45;85.30
54936;BME280;40838;50.676;7.838;2023-03-18T13:09:44;97891.25;;;11.44;87.45
54936;BME280;40838;50.676;7.838;2023-03-18T13:12:16;97877.91;;;11.90;89.11
54936;BME280;40838;50.676;7.838;2023-03-18T13:14:50;97887.19;;;11.93;90.47
54936;BME280;40838;50.676;7.838;2023-03-18T13:17:23;97886.28;;;11.37;89.33
54936;BME280;40838;50.676;7.838;2023-03-18T13:19:57;97876.84;;;10.55;92.01
54936;BME280;40838;50.676;7.838;2023-03-18T13:22:35;97868.72;;;10.85;93.08
54936;BME280;40838;50.676;7.838;2023-03-18T13:25:19;97863.53;;;10.93;93.19
54936;BME280;40838;50.676;7.838;2023-03-18T13:27:59;97867.16;;;11.49;90.22